| time (UTC) | temp F | wind direction | speed MPH | gust MPH | rain 1hr in | rain 24hr in | rain mn in | humidity % | barometer mb |
| 20260506182222 | 61 | 143 | 3.0 | 8.0 | 0.06 | 0.27 | 0.27 | 94 | 1008.5 |
| 20260506181723 | 61 | 215 | 3.0 | 8.0 | 0.06 | 0.26 | 0.26 | 94 | 1008.3 |
| 20260506181215 | 61 | 225 | 3.0 | 8.0 | 0.06 | 0.26 | 0.26 | 94 | 1008.4 |
| 20260506181038 | 61 | 225 | 2.0 | 8.0 | 0.07 | 0.26 | 0.26 | 93 | 1008.4 |
| 20260506180216 | 61 | 209 | 2.0 | 6.0 | 0.07 | 0.25 | 0.25 | 93 | 1008.5 |
| 20260506180045 | 61 | 252 | 3.0 | 6.0 | 0.08 | 0.25 | 0.25 | 93 | 1008.5 |
| 20260506175212 | 61 | 179 | 3.0 | 6.0 | 0.08 | 0.25 | 0.24 | 93 | 1008.6 |
| 20260506174709 | 61 | 221 | 3.0 | 12.0 | 0.07 | 0.24 | 0.24 | 93 | 1008.5 |
| 20260506174207 | 61 | 192 | 4.0 | 12.0 | 0.07 | 0.23 | 0.23 | 93 | 1008.5 |
| 20260506173707 | 61 | 216 | 4.0 | 12.0 | 0.07 | 0.23 | 0.23 | 92 | 1008.5 |
| 20260506173206 | 61 | 254 | 5.0 | 12.0 | 0.07 | 0.23 | 0.22 | 92 | 1008.4 |
| 20260506172707 | 61 | 227 | 5.0 | 14.0 | 0.06 | 0.22 | 0.22 | 92 | 1008.4 |
| 20260506172202 | 61 | 174 | 5.0 | 14.0 | 0.05 | 0.21 | 0.21 | 92 | 1008.5 |
| 20260506171701 | 61 | 172 | 4.0 | 12.0 | 0.04 | 0.20 | 0.20 | 92 | 1008.6 |
| 20260506171202 | 61 | 155 | 5.0 | 11.0 | 0.04 | 0.20 | 0.20 | 92 | 1008.6 |
| 20260506170705 | 61 | 219 | 5.0 | 13.0 | 0.04 | 0.19 | 0.19 | 91 | 1008.7 |
| 20260506170202 | 61 | 187 | 4.0 | 13.0 | 0.03 | 0.18 | 0.18 | 91 | 1008.7 |
| 20260506170049 | 61 | 230 | 5.0 | 15.0 | 0.02 | 0.17 | 0.17 | 91 | 1008.8 |
| 20260506165202 | 61 | 198 | 5.0 | 15.0 | 0.03 | 0.17 | 0.17 | 91 | 1008.7 |
| 20260506164705 | 61 | 203 | 4.0 | 12.0 | 0.04 | 0.17 | 0.17 | 91 | 1008.8 |
| 20260506164202 | 61 | 168 | 4.0 | 12.0 | 0.04 | 0.16 | 0.16 | 91 | 1008.8 |
| 20260506163702 | 62 | 182 | 5.0 | 15.0 | 0.05 | 0.16 | 0.16 | 91 | 1008.7 |
| 20260506163551 | 61 | 216 | 7.0 | 15.0 | 0.06 | 0.16 | 0.16 | 90 | 1008.8 |
| 20260506162701 | 61 | 211 | 6.0 | 15.0 | 0.07 | 0.16 | 0.16 | 91 | 1008.7 |
| 20260506162202 | 62 | 194 | 5.0 | 15.0 | 0.08 | 0.16 | 0.16 | 91 | 1008.6 |
| 20260506162041 | 62 | 205 | 6.0 | 15.0 | 0.09 | 0.16 | 0.16 | 91 | 1008.5 |
| 20260506161201 | 62 | 164 | 5.0 | 15.0 | 0.09 | 0.16 | 0.15 | 91 | 1008.5 |
| 20260506160704 | 62 | 208 | 5.0 | 13.0 | 0.09 | 0.15 | 0.15 | 92 | 1008.6 |
| 20260506160202 | 62 | 217 | 5.0 | 14.0 | 0.09 | 0.15 | 0.15 | 91 | 1008.7 |
| 20260506155703 | 61 | 177 | 5.0 | 14.0 | 0.09 | 0.15 | 0.14 | 91 | 1008.9 |
| 20260506155202 | 62 | 168 | 5.0 | 12.0 | 0.08 | 0.14 | 0.14 | 91 | 1009.2 |
| 20260506154702 | 62 | 215 | 5.0 | 12.0 | 0.08 | 0.13 | 0.13 | 91 | 1009.4 |
| 20260506154202 | 62 | 157 | 5.0 | 12.0 | 0.08 | 0.12 | 0.12 | 90 | 1009.6 |
| 20260506153701 | 62 | 195 | 5.0 | 12.0 | 0.07 | 0.11 | 0.11 | 90 | 1009.7 |
| 20260506153354 | 62 | 155 | 6.0 | 13.0 | 0.07 | 0.10 | 0.10 | 90 | 1009.6 |
| 20260506152631 | 62 | 160 | 6.0 | 15.0 | 0.07 | 0.08 | 0.08 | 89 | 1009.6 |
| 20260506151705 | 62 | 238 | 6.0 | 15.0 | 0.07 | 0.07 | 0.07 | 89 | 1009.9 |
| 20260506151205 | 63 | 184 | 5.0 | 15.0 | 0.07 | 0.07 | 0.07 | 89 | 1009.7 |
| 20260506151124 | 63 | 125 | 3.0 | 13.0 | 0.06 | 0.06 | 0.06 | 89 | 1009.6 |
| 20260506150201 | 63 | 226 | 4.0 | 11.0 | 0.06 | 0.06 | 0.06 | 89 | 1009.4 |
| 20260506145705 | 63 | 147 | 4.0 | 11.0 | 0.06 | 0.06 | 0.06 | 89 | 1009.4 |
| 20260506145203 | 63 | 166 | 3.0 | 8.0 | 0.06 | 0.06 | 0.05 | 89 | 1009.5 |
| 20260506144702 | 63 | 196 | 3.0 | 8.0 | 0.05 | 0.05 | 0.05 | 88 | 1009.6 |
| 20260506144349 | 63 | 150 | 3.0 | 8.0 | 0.04 | 0.04 | 0.04 | 87 | 1009.3 |
| 20260506143632 | 64 | 213 | 3.0 | 6.0 | 0.03 | 0.03 | 0.03 | 86 | 1009.5 |
| 20260506142701 | 64 | 191 | 3.0 | 12.0 | 0.02 | 0.02 | 0.02 | 86 | 1009.7 |
| 20260506142201 | 64 | 148 | 4.0 | 12.0 | 0.01 | 0.01 | 0.01 | 85 | 1009.8 |
| 20260506141701 | 64 | 163 | 5.0 | 14.0 | 0.00 | 0.00 | 0.00 | 84 | 1009.6 |
| 20260506141202 | 64 | 150 | 5.0 | 14.0 | 0.00 | 0.00 | 0.00 | 83 | 1009.6 |
| 20260506140703 | 64 | 228 | 4.0 | 13.0 | 0.00 | 0.00 | 0.00 | 83 | 1009.6 |
| 20260506140156 | 64 | 239 | 4.0 | 12.0 | 0.00 | 0.00 | 0.00 | 83 | 1009.6 |
| 20260506135652 | 65 | 147 | 4.0 | 9.0 | 0.00 | 0.00 | 0.00 | 84 | 1009.3 |
| 20260506135647 | 64 | 152 | 4.0 | 9.0 | 0.00 | 0.00 | 0.00 | 83 | 1009.4 |
| 20260506134634 | 64 | 177 | 4.0 | 9.0 | 0.00 | 0.00 | 0.00 | 84 | 1009.5 |
| 20260506134136 | 64 | 191 | 4.0 | 10.0 | 0.00 | 0.00 | 0.00 | 83 | 1009.5 |
| 20260506133637 | 64 | 186 | 4.0 | 10.0 | 0.00 | 0.00 | 0.00 | 83 | 1009.7 |
| 20260506133132 | 65 | 183 | 4.0 | 10.0 | 0.00 | 0.00 | 0.00 | 82 | 1009.7 |
| 20260506132634 | 65 | 194 | 5.0 | 10.0 | 0.00 | 0.00 | 0.00 | 82 | 1009.7 |
| 20260506132136 | 65 | 212 | 5.0 | 11.0 | 0.00 | 0.00 | 0.00 | 81 | 1009.7 |
| 20260506131633 | 65 | 149 | 5.0 | 11.0 | 0.00 | 0.00 | 0.00 | 81 | 1009.7 |
| 20260506131132 | 65 | 202 | 4.0 | 9.0 | 0.00 | 0.00 | 0.00 | 81 | 1009.7 |
| 20260506130633 | 65 | 170 | 3.0 | 10.0 | 0.00 | 0.00 | 0.00 | 81 | 1009.7 |
| 20260506130603 | 65 | 152 | 4.0 | 12.0 | 0.00 | 0.00 | 0.00 | 81 | 1009.8 |
| 20260506125634 | 66 | 197 | 5.0 | 12.0 | 0.00 | 0.00 | 0.00 | 79 | 1009.8 |
| 20260506125133 | 66 | 178 | 5.0 | 12.0 | 0.00 | 0.00 | 0.00 | 78 | 1009.8 |
| 20260506124634 | 66 | 216 | 6.0 | 16.0 | 0.00 | 0.00 | 0.00 | 77 | 1009.7 |
| 20260506124136 | 66 | 219 | 6.0 | 16.0 | 0.00 | 0.00 | 0.00 | 76 | 1009.6 |
| 20260506124101 | 66 | 211 | 6.0 | 16.0 | 0.00 | 0.00 | 0.00 | 76 | 1009.5 |
| 20260506123135 | 66 | 217 | 5.0 | 16.0 | 0.00 | 0.00 | 0.00 | 76 | 1009.6 |
| 20260506122637 | 66 | 171 | 5.0 | 12.0 | 0.00 | 0.00 | 0.00 | 76 | 1009.6 |
| 20260506122132 | 66 | 196 | 6.0 | 12.0 | 0.00 | 0.00 | 0.00 | 76 | 1009.4 |
| 20260506121636 | 66 | 197 | 5.0 | 13.0 | 0.00 | 0.00 | 0.00 | 76 | 1009.2 |
| 20260506121132 | 66 | 159 | 6.0 | 14.0 | 0.00 | 0.00 | 0.00 | 76 | 1009.2 |
| 20260506120632 | 66 | 183 | 5.0 | 14.0 | 0.00 | 0.00 | 0.00 | 76 | 1009.5 |
| 20260506120130 | 66 | 168 | 4.0 | 13.0 | 0.00 | 0.00 | 0.00 | 76 | 1009.4 |
| 20260506115630 | 66 | 207 | 5.0 | 12.0 | 0.00 | 0.00 | 0.00 | 75 | 1009.4 |
| 20260506115518 | 66 | 248 | 5.0 | 10.0 | 0.00 | 0.00 | 0.00 | 75 | 1009.4 |
| 20260506114634 | 66 | 213 | 4.0 | 10.0 | 0.00 | 0.00 | 0.00 | 75 | 1009.3 |
| 20260506114134 | 66 | 172 | 4.0 | 10.0 | 0.00 | 0.00 | 0.00 | 76 | 1009.3 |
| 20260506113637 | 66 | 188 | 4.0 | 9.0 | 0.00 | 0.00 | 0.00 | 75 | 1009.3 |
| 20260506113134 | 66 | 181 | 5.0 | 10.0 | 0.00 | 0.00 | 0.00 | 75 | 1009.4 |
| 20260506112630 | 66 | 158 | 4.0 | 10.0 | 0.00 | 0.00 | 0.00 | 75 | 1009.4 |
| 20260506112130 | 66 | 159 | 4.0 | 14.0 | 0.00 | 0.00 | 0.00 | 75 | 1009.4 |
| 20260506111634 | 66 | 184 | 5.0 | 14.0 | 0.00 | 0.00 | 0.00 | 75 | 1009.4 |
| 20260506111553 | 66 | 219 | 6.0 | 14.0 | 0.00 | 0.00 | 0.00 | 75 | 1009.4 |
| 20260506111058 | 66 | 188 | 6.0 | 16.0 | 0.00 | 0.00 | 0.00 | 75 | 1009.3 |
| 20260506110312 | 66 | 168 | 5.0 | 16.0 | 0.00 | 0.00 | 0.00 | 75 | 1009.2 |
| 20260506105131 | 66 | 138 | 4.0 | 14.0 | 0.00 | 0.00 | 0.00 | 75 | 1008.9 |
| 20260506104629 | 66 | 171 | 4.0 | 11.0 | 0.00 | 0.00 | 0.00 | 75 | 1009.0 |
| 20260506104130 | 66 | 169 | 4.0 | 11.0 | 0.00 | 0.00 | 0.00 | 75 | 1008.9 |
| 20260506103630 | 66 | 212 | 5.0 | 11.0 | 0.00 | 0.00 | 0.00 | 75 | 1008.8 |
| 20260506103605 | 66 | 201 | 6.0 | 11.0 | 0.00 | 0.00 | 0.00 | 75 | 1008.7 |
| 20260506102629 | 66 | 151 | 5.0 | 11.0 | 0.00 | 0.00 | 0.00 | 75 | 1008.7 |
| 20260506102130 | 66 | 123 | 5.0 | 10.0 | 0.00 | 0.00 | 0.00 | 75 | 1008.7 |
| 20260506102032 | 66 | 168 | 5.0 | 11.0 | 0.00 | 0.00 | 0.00 | 75 | 1008.8 |
| 20260506101129 | 66 | 136 | 4.0 | 11.0 | 0.00 | 0.00 | 0.00 | 75 | 1008.8 |
| 20260506100830 | 66 | 198 | 4.0 | 10.0 | 0.00 | 0.00 | 0.00 | 75 | 1008.9 |
| 20260506095625 | 66 | 177 | 3.0 | 10.0 | 0.00 | 0.00 | 0.00 | 75 | 1008.9 |
| 20260506095117 | 66 | 161 | 4.0 | 11.0 | 0.00 | 0.00 | 0.00 | 75 | 1009.0 |
| 20260506094614 | 66 | 186 | 5.0 | 12.0 | 0.00 | 0.00 | 0.00 | 74 | 1008.9 |
| 20260506094117 | 66 | 178 | 4.0 | 12.0 | 0.00 | 0.00 | 0.00 | 74 | 1008.9 |
| 20260506093612 | 67 | 200 | 5.0 | 13.0 | 0.00 | 0.00 | 0.00 | 74 | 1008.8 |
| 20260506093532 | 67 | 190 | 5.0 | 13.0 | 0.00 | 0.00 | 0.00 | 73 | 1008.8 |
| 20260506092614 | 67 | 208 | 5.0 | 13.0 | 0.00 | 0.00 | 0.00 | 73 | 1008.9 |
| 20260506092500 | 67 | 204 | 5.0 | 13.0 | 0.00 | 0.00 | 0.00 | 73 | 1008.9 |
| 20260506091610 | 67 | 209 | 4.0 | 12.0 | 0.00 | 0.00 | 0.00 | 73 | 1008.9 |
| 20260506091110 | 67 | 198 | 4.0 | 12.0 | 0.00 | 0.00 | 0.00 | 72 | 1008.8 |
| 20260506091022 | 67 | 185 | 5.0 | 13.0 | 0.00 | 0.00 | 0.00 | 72 | 1008.9 |
| 20260506090109 | 67 | 207 | 5.0 | 13.0 | 0.00 | 0.00 | 0.00 | 72 | 1008.9 |
| 20260506085608 | 67 | 184 | 4.0 | 11.0 | 0.00 | 0.00 | 0.00 | 71 | 1009.0 |
| 20260506085107 | 67 | 227 | 5.0 | 12.0 | 0.00 | 0.00 | 0.00 | 71 | 1009.0 |
| 20260506084604 | 67 | 170 | 5.0 | 12.0 | 0.00 | 0.00 | 0.00 | 71 | 1009.1 |
| 20260506084105 | 67 | 197 | 5.0 | 13.0 | 0.00 | 0.03 | 0.00 | 71 | 1009.1 |
| 20260506083604 | 67 | 147 | 6.0 | 13.0 | 0.00 | 0.05 | 0.00 | 70 | 1009.1 |
| 20260506083258 | 67 | 175 | 5.0 | 13.0 | 0.00 | 0.06 | 0.00 | 70 | 1009.1 |
| 20260506082102 | 67 | 171 | 6.0 | 14.0 | 0.00 | 0.06 | 0.00 | 69 | 1009.1 |
| 20260506082028 | 67 | 199 | 6.0 | 12.0 | 0.00 | 0.06 | 0.00 | 69 | 1009.1 |
| 20260506081059 | 67 | 161 | 5.0 | 11.0 | 0.00 | 0.06 | 0.00 | 69 | 1009.2 |
| 20260506080555 | 67 | 275 | 5.0 | 10.0 | 0.00 | 0.06 | 0.00 | 69 | 1009.1 |
| 20260506073030 | 68 | 182 | 5.0 | 13.0 | 0.00 | 0.06 | 0.00 | 66 | 1009.2 |
| 20260506072529 | 68 | 265 | 4.0 | 10.0 | 0.00 | 0.06 | 0.00 | 65 | 1009.3 |
| 20260506072446 | 68 | 202 | 5.0 | 10.0 | 0.00 | 0.06 | 0.00 | 65 | 1009.2 |
| 20260506071530 | 68 | 154 | 5.0 | 12.0 | 0.00 | 0.06 | 0.00 | 65 | 1009.3 |
| 20260506071030 | 69 | 230 | 5.0 | 12.0 | 0.00 | 0.06 | 0.00 | 64 | 1009.3 |
| 20260506070532 | 69 | 229 | 5.0 | 12.0 | 0.00 | 0.06 | 0.00 | 64 | 1009.3 |
| 20260506070227 | 69 | 202 | 5.0 | 12.0 | 0.00 | 0.06 | 0.00 | 64 | 1009.3 |
| 20260506062029 | 69 | 196 | 4.0 | 11.0 | 0.00 | 0.06 | 0.00 | 62 | 1009.5 |
| 20260506061533 | 69 | 284 | 5.0 | 13.0 | 0.00 | 0.06 | 0.00 | 62 | 1009.6 |
| 20260506061033 | 69 | 202 | 5.0 | 13.0 | 0.00 | 0.06 | 0.00 | 61 | 1009.6 |
| 20260506060529 | 69 | 163 | 5.0 | 12.0 | 0.00 | 0.06 | 0.00 | 61 | 1009.7 |
| 20260506060456 | 70 | 175 | 6.0 | 17.0 | 0.00 | 0.06 | 0.00 | 61 | 1009.8 |
| 20260506051030 | 70 | 214 | 7.0 | 16.0 | 0.00 | 0.06 | 0.00 | 59 | 1009.9 |
| 20260506050552 | 70 | 212 | 6.0 | 17.0 | 0.00 | 0.06 | 0.00 | 59 | 1010.0 |
| 20260506045040 | 70 | 187 | 5.0 | 17.0 | 0.00 | 0.06 | 0.00 | 59 | 1010.0 |
| 20260506044547 | 70 | 163 | 4.0 | 14.0 | 0.00 | 0.06 | 0.00 | 59 | 1010.0 |
| 20260506044035 | 70 | 135 | 5.0 | 13.0 | 0.00 | 0.06 | 0.00 | 59 | 1010.1 |
| 20260506043535 | 70 | 146 | 6.0 | 14.0 | 0.00 | 0.06 | 0.00 | 59 | 1010.0 |
| 20260506043451 | 70 | 163 | 6.0 | 14.0 | 0.00 | 0.06 | 0.00 | 58 | 1010.0 |
| 20260506042530 | 70 | 195 | 5.0 | 19.0 | 0.00 | 0.06 | 0.00 | 58 | 1010.0 |
| 20260506042032 | 70 | 198 | 5.0 | 19.0 | 0.00 | 0.06 | 0.00 | 58 | 1010.2 |
| 20260506041529 | 70 | 146 | 6.0 | 19.0 | 0.00 | 0.06 | 0.00 | 58 | 1010.1 |
| 20260506041045 | 70 | 142 | 6.0 | 19.0 | 0.00 | 0.06 | 0.00 | 57 | 1010.0 |
| 20260506040809 | 70 | 154 | 4.0 | 12.0 | 0.00 | 0.06 | 0.00 | 57 | 1010.0 |
| 20260506040029 | 70 | 210 | 4.0 | 14.0 | 0.00 | 0.06 | 0.00 | 57 | 1010.0 |
| 20260506035733 | 71 | 200 | 5.0 | 14.0 | 0.00 | 0.06 | 0.06 | 56 | 1010.1 |
| 20260506034529 | 71 | 192 | 6.0 | 15.0 | 0.00 | 0.06 | 0.06 | 56 | 1010.2 |
| 20260506034411 | 71 | 162 | 4.0 | 12.0 | 0.00 | 0.06 | 0.06 | 56 | 1010.1 |
| 20260506033913 | 71 | 215 | 4.0 | 14.0 | 0.00 | 0.06 | 0.06 | 56 | 1010.1 |
| 20260506033030 | 71 | 206 | 4.0 | 14.0 | 0.00 | 0.06 | 0.06 | 55 | 1010.0 |
| 20260506032536 | 71 | 143 | 2.0 | 11.0 | 0.00 | 0.06 | 0.06 | 55 | 1010.1 |
| 20260506032029 | 71 | 238 | 2.0 | 10.0 | 0.00 | 0.06 | 0.06 | 54 | 1010.1 |
| 20260506031529 | 71 | 166 | 3.0 | 10.0 | 0.00 | 0.06 | 0.06 | 54 | 1010.0 |
| 20260506031029 | 72 | 158 | 3.0 | 12.0 | 0.00 | 0.06 | 0.06 | 54 | 1010.1 |
| 20260506030535 | 72 | 170 | 3.0 | 12.0 | 0.00 | 0.06 | 0.06 | 53 | 1010.0 |
| 20260506030457 | 72 | 200 | 4.0 | 13.0 | 0.00 | 0.06 | 0.06 | 53 | 1010.1 |
| 20260506030213 | 72 | 200 | 4.0 | 13.0 | 0.00 | 0.06 | 0.06 | 53 | 1010.1 |
| 20260506025031 | 73 | 148 | 5.0 | 12.0 | 0.00 | 0.06 | 0.06 | 52 | 1009.9 |
| 20260506024533 | 73 | 199 | 6.0 | 12.0 | 0.00 | 0.06 | 0.06 | 52 | 1009.8 |
| 20260506024031 | 73 | 124 | 5.0 | 15.0 | 0.00 | 0.06 | 0.06 | 51 | 1009.9 |
| 20260506023530 | 73 | 178 | 5.0 | 15.0 | 0.00 | 0.06 | 0.06 | 51 | 1010.0 |
| 20260506023035 | 73 | 134 | 5.0 | 15.0 | 0.00 | 0.06 | 0.06 | 51 | 1010.1 |
| 20260506022530 | 73 | 139 | 5.0 | 15.0 | 0.00 | 0.06 | 0.06 | 51 | 1010.0 |
| 20260506022034 | 73 | 127 | 4.0 | 11.0 | 0.00 | 0.06 | 0.06 | 50 | 1010.1 |
| 20260506021530 | 74 | 153 | 5.0 | 11.0 | 0.00 | 0.06 | 0.06 | 50 | 1010.1 |
| 20260506021216 | 74 | 190 | 5.0 | 11.0 | 0.00 | 0.06 | 0.06 | 49 | 1010.0 |
| 20260506020457 | 74 | 180 | 5.0 | 12.0 | 0.00 | 0.06 | 0.06 | 49 | 1010.1 |
| 20260506015032 | 74 | 188 | 5.0 | 12.0 | 0.00 | 0.06 | 0.06 | 48 | 1009.9 |
| 20260506014531 | 74 | 176 | 4.0 | 18.0 | 0.00 | 0.06 | 0.06 | 48 | 1009.9 |
| 20260506014453 | 75 | 142 | 4.0 | 18.0 | 0.00 | 0.06 | 0.06 | 47 | 1009.8 |
| 20260506013531 | 75 | 180 | 5.0 | 20.0 | 0.00 | 0.06 | 0.06 | 47 | 1009.9 |
| 20260506013030 | 75 | 190 | 6.0 | 20.0 | 0.00 | 0.06 | 0.06 | 46 | 1009.9 |
| 20260506012530 | 75 | 223 | 5.0 | 13.0 | 0.00 | 0.06 | 0.06 | 46 | 1009.8 |
| 20260506012029 | 75 | 182 | 5.0 | 13.0 | 0.00 | 0.06 | 0.06 | 46 | 1009.7 |
| 20260506011530 | 75 | 189 | 5.0 | 12.0 | 0.00 | 0.06 | 0.06 | 46 | 1009.7 |
| 20260506011031 | 75 | 258 | 4.0 | 10.0 | 0.00 | 0.06 | 0.06 | 46 | 1009.5 |
| 20260506010529 | 76 | 202 | 4.0 | 10.0 | 0.00 | 0.06 | 0.06 | 46 | 1009.4 |
| 20260506010029 | 76 | 148 | 4.0 | 15.0 | 0.00 | 0.06 | 0.06 | 45 | 1009.5 |
| 20260506005532 | 76 | 164 | 5.0 | 15.0 | 0.00 | 0.06 | 0.06 | 45 | 1009.3 |
| 20260506005030 | 76 | 156 | 6.0 | 15.0 | 0.00 | 0.06 | 0.06 | 44 | 1009.3 |
| 20260506004532 | 76 | 153 | 6.0 | 15.0 | 0.00 | 0.06 | 0.06 | 44 | 1009.4 |
| 20260506004030 | 76 | 213 | 5.0 | 13.0 | 0.00 | 0.06 | 0.06 | 44 | 1009.3 |
| 20260506003535 | 76 | 179 | 6.0 | 11.0 | 0.00 | 0.06 | 0.06 | 44 | 1009.2 |
| 20260506003030 | 77 | 194 | 6.0 | 17.0 | 0.00 | 0.06 | 0.06 | 43 | 1009.1 |
| 20260506002530 | 77 | 169 | 5.0 | 17.0 | 0.00 | 0.06 | 0.06 | 44 | 1009.1 |
| 20260506002029 | 77 | 146 | 6.0 | 17.0 | 0.00 | 0.06 | 0.06 | 44 | 1009.0 |
| 20260506001953 | 77 | 223 | 6.0 | 17.0 | 0.00 | 0.06 | 0.06 | 44 | 1008.8 |
| 20260506001030 | 77 | 194 | 5.0 | 16.0 | 0.00 | 0.06 | 0.06 | 44 | 1008.9 |
| 20260506000530 | 77 | 112 | 5.0 | 16.0 | 0.00 | 0.06 | 0.06 | 44 | 1008.8 |
| 20260506000030 | 77 | 186 | 6.0 | 17.0 | 0.00 | 0.06 | 0.06 | 44 | 1008.8 |
| 20260505235529 | 77 | 168 | 6.0 | 17.0 | 0.00 | 0.06 | 0.06 | 44 | 1009.0 |
| 20260505235034 | 77 | 205 | 6.0 | 17.0 | 0.00 | 0.06 | 0.06 | 44 | 1008.7 |
| 20260505234725 | 78 | 188 | 6.0 | 17.0 | 0.00 | 0.06 | 0.06 | 43 | 1008.7 |
| 20260505233528 | 78 | 196 | 7.0 | 17.0 | 0.00 | 0.06 | 0.06 | 42 | 1008.6 |
| 20260505233022 | 78 | 184 | 8.0 | 18.0 | 0.00 | 0.06 | 0.06 | 41 | 1008.6 |
| 20260505232513 | 78 | 234 | 8.0 | 18.0 | 0.00 | 0.06 | 0.06 | 41 | 1008.5 |
| 20260505232005 | 78 | 175 | 7.0 | 18.0 | 0.00 | 0.06 | 0.06 | 41 | 1008.4 |
| 20260505231505 | 78 | 221 | 8.0 | 18.0 | 0.00 | 0.06 | 0.06 | 41 | 1008.5 |
| 20260505231008 | 78 | 259 | 8.0 | 19.0 | 0.00 | 0.06 | 0.06 | 42 | 1008.4 |
| 20260505230504 | 79 | 188 | 7.0 | 19.0 | 0.00 | 0.06 | 0.06 | 42 | 1008.5 |
| 20260505230004 | 79 | 169 | 8.0 | 19.0 | 0.00 | 0.06 | 0.06 | 41 | 1008.4 |
| 20260505225504 | 79 | 182 | 8.0 | 19.0 | 0.00 | 0.06 | 0.06 | 41 | 1008.5 |
| 20260505225003 | 79 | 155 | 7.0 | 18.0 | 0.00 | 0.06 | 0.06 | 40 | 1008.3 |
| 20260505224503 | 80 | 208 | 7.0 | 18.0 | 0.00 | 0.06 | 0.06 | 40 | 1008.4 |
| 20260505224432 | 80 | 205 | 7.0 | 17.0 | 0.00 | 0.06 | 0.06 | 40 | 1008.3 |
| 20260505223503 | 80 | 190 | 7.0 | 19.0 | 0.00 | 0.06 | 0.06 | 41 | 1008.4 |
| 20260505223007 | 80 | 123 | 7.0 | 19.0 | 0.00 | 0.06 | 0.06 | 40 | 1008.2 |
| 20260505222508 | 80 | 225 | 8.0 | 20.0 | 0.00 | 0.06 | 0.06 | 41 | 1008.3 |
| 20260505222007 | 80 | 176 | 9.0 | 20.0 | 0.00 | 0.06 | 0.06 | 40 | 1008.2 |
| 20260505221939 | 80 | 225 | 9.0 | 19.0 | 0.00 | 0.06 | 0.06 | 41 | 1007.9 |
| 20260505221006 | 80 | 145 | 9.0 | 19.0 | 0.00 | 0.06 | 0.06 | 41 | 1008.0 |
| 20260505220501 | 80 | 194 | 8.0 | 19.0 | 0.00 | 0.06 | 0.06 | 41 | 1008.1 |
| 20260505220008 | 80 | 173 | 7.0 | 16.0 | 0.00 | 0.06 | 0.06 | 41 | 1008.1 |
| 20260505215502 | 81 | 163 | 6.0 | 18.0 | 0.00 | 0.06 | 0.06 | 41 | 1008.1 |
| 20260505215001 | 81 | 169 | 7.0 | 18.0 | 0.00 | 0.06 | 0.06 | 41 | 1008.3 |
| 20260505214730 | 80 | 152 | 9.0 | 18.0 | 0.00 | 0.06 | 0.06 | 42 | 1008.3 |
| 20260505214004 | 80 | 178 | 9.0 | 21.0 | 0.00 | 0.06 | 0.06 | 41 | 1008.2 |
| 20260505213513 | 81 | 150 | 8.0 | 21.0 | 0.00 | 0.06 | 0.06 | 40 | 1008.3 |
| 20260505213434 | 81 | 154 | 8.0 | 19.0 | 0.00 | 0.06 | 0.06 | 41 | 1008.3 |
| 20260505212501 | 81 | 156 | 8.0 | 21.0 | 0.00 | 0.06 | 0.06 | 41 | 1008.3 |
| 20260505212433 | 81 | 121 | 8.0 | 21.0 | 0.00 | 0.06 | 0.06 | 41 | 1008.3 |
| 20260505211506 | 80 | 157 | 9.0 | 23.0 | 0.00 | 0.06 | 0.06 | 41 | 1008.2 |
| 20260505211005 | 80 | 266 | 9.0 | 23.0 | 0.00 | 0.06 | 0.06 | 40 | 1008.1 |
| 20260505210504 | 81 | 197 | 8.0 | 20.0 | 0.00 | 0.06 | 0.06 | 40 | 1008.0 |
| 20260505210002 | 81 | 200 | 8.0 | 18.0 | 0.00 | 0.06 | 0.06 | 41 | 1008.0 |
| 20260505205928 | 81 | 140 | 9.0 | 20.0 | 0.00 | 0.06 | 0.06 | 42 | 1008.1 |
| 20260505205430 | 81 | 185 | 9.0 | 20.0 | 0.00 | 0.06 | 0.06 | 40 | 1008.1 |
| 20260505204502 | 81 | 184 | 8.0 | 18.0 | 0.00 | 0.06 | 0.06 | 40 | 1008.1 |
| 20260505204001 | 81 | 178 | 7.0 | 17.0 | 0.00 | 0.06 | 0.06 | 39 | 1008.1 |
| 20260505203926 | 81 | 202 | 8.0 | 17.0 | 0.00 | 0.06 | 0.06 | 39 | 1007.9 |
| 20260505203005 | 81 | 135 | 9.0 | 22.0 | 0.00 | 0.06 | 0.06 | 38 | 1007.9 |
| 20260505202501 | 81 | 167 | 8.0 | 22.0 | 0.00 | 0.06 | 0.06 | 38 | 1008.1 |
| 20260505202408 | 82 | 148 | 8.0 | 18.0 | 0.00 | 0.06 | 0.06 | 39 | 1008.0 |
| 20260505201506 | 82 | 188 | 7.0 | 19.0 | 0.00 | 0.06 | 0.06 | 38 | 1008.1 |
| 20260505201005 | 82 | 242 | 7.0 | 19.0 | 0.00 | 0.06 | 0.06 | 39 | 1008.2 |
| 20260505200506 | 82 | 217 | 7.0 | 20.0 | 0.00 | 0.06 | 0.06 | 39 | 1008.1 |
| 20260505200006 | 81 | 195 | 7.0 | 20.0 | 0.00 | 0.06 | 0.06 | 40 | 1008.2 |
| 20260505195501 | 82 | 194 | 8.0 | 20.0 | 0.00 | 0.06 | 0.06 | 40 | 1008.3 |
| 20260505195153 | 82 | 213 | 10.0 | 20.0 | 0.00 | 0.06 | 0.06 | 40 | 1008.2 |
| 20260505194428 | 82 | 173 | 8.0 | 17.0 | 0.00 | 0.06 | 0.06 | 40 | 1008.3 |
| 20260505193508 | 82 | 223 | 8.0 | 20.0 | 0.00 | 0.06 | 0.06 | 41 | 1008.3 |
| 20260505193005 | 81 | 171 | 8.0 | 20.0 | 0.00 | 0.06 | 0.06 | 41 | 1008.2 |
| 20260505192507 | 81 | 153 | 9.0 | 22.0 | 0.00 | 0.06 | 0.06 | 42 | 1008.3 |
| 20260505192001 | 81 | 178 | 8.0 | 22.0 | 0.00 | 0.06 | 0.06 | 42 | 1008.5 |
| 20260505191507 | 81 | 206 | 7.0 | 15.0 | 0.00 | 0.06 | 0.06 | 42 | 1008.4 |
| 20260505191000 | 81 | 182 | 7.0 | 15.0 | 0.00 | 0.06 | 0.06 | 42 | 1008.5 |
| 20260505190501 | 82 | 222 | 8.0 | 15.0 | 0.00 | 0.06 | 0.06 | 40 | 1008.4 |
| 20260505190027 | 82 | 250 | 7.0 | 15.0 | 0.00 | 0.06 | 0.06 | 40 | 1008.5 |
| 20260505185842 | 82 | 205 | 6.0 | 15.0 | 0.00 | 0.06 | 0.06 | 39 | 1008.7 |
| 20260505185025 | 82 | 177 | 5.0 | 12.0 | 0.00 | 0.06 | 0.06 | 41 | 1008.6 |
| 20260505184523 | 81 | 240 | 6.0 | 12.0 | 0.00 | 0.06 | 0.06 | 41 | 1008.6 |
| 20260505184018 | 81 | 156 | 6.0 | 12.0 | 0.00 | 0.06 | 0.06 | 42 | 1008.7 |
| 20260505183529 | 81 | 182 | 6.0 | 15.0 | 0.00 | 0.06 | 0.06 | 42 | 1008.8 |
| 20260505183045 | 82 | 148 | 8.0 | 15.0 | 0.00 | 0.06 | 0.06 | 42 | 1008.9 |
| 20260505183026 | 81 | 250 | 7.0 | 15.0 | 0.00 | 0.06 | 0.06 | 41 | 1008.8 |